createdAt,value
2023-03-06T00:00:56.780Z,101050.38
2023-03-06T00:03:26.069Z,101041.03
2023-03-06T00:05:56.470Z,101033.16
2023-03-06T00:08:24.148Z,101035.38
2023-03-06T00:10:50.828Z,101024.66
2023-03-06T00:13:20.519Z,101022.63
2023-03-06T00:15:51.276Z,101026.28
2023-03-06T00:18:20.498Z,101022.66
2023-03-06T00:20:51.481Z,101022.19
2023-03-06T00:23:22.023Z,101016.81
2023-03-06T00:25:48.755Z,101005.91
2023-03-06T00:28:16.137Z,101010.50
2023-03-06T00:30:43.343Z,100999.00
2023-03-06T00:33:11.820Z,100997.09
2023-03-06T00:35:40.802Z,100997.44
2023-03-06T00:38:08.210Z,100989.38
2023-03-06T00:40:34.813Z,100980.50
2023-03-06T00:43:02.369Z,100972.91
2023-03-06T00:45:29.298Z,100971.16
2023-03-06T00:47:57.953Z,100966.56
2023-03-06T00:50:25.639Z,100971.00
2023-03-06T00:52:52.210Z,100969.75
2023-03-06T00:55:19.032Z,100967.41
2023-03-06T00:57:47.175Z,100962.69
2023-03-06T01:00:17.378Z,100963.81
2023-03-06T01:02:43.932Z,100963.81
2023-03-06T01:05:13.371Z,100950.69
2023-03-06T01:07:40.057Z,100957.66
2023-03-06T01:10:08.264Z,100944.66
2023-03-06T01:12:36.422Z,100935.84
2023-03-06T01:15:03.886Z,100946.09
2023-03-06T01:17:31.804Z,100940.63
2023-03-06T01:19:59.407Z,100940.94
2023-03-06T01:22:26.592Z,100934.00
2023-03-06T01:24:53.215Z,100924.03
2023-03-06T01:27:19.718Z,100929.88
2023-03-06T01:29:46.341Z,100931.63
2023-03-06T01:32:13.062Z,100928.47
2023-03-06T01:34:39.976Z,100936.84
2023-03-06T01:37:06.654Z,100931.47
2023-03-06T01:39:40.380Z,100931.00
2023-03-06T01:42:07.549Z,100930.53
2023-03-06T01:44:35.042Z,100930.88
2023-03-06T01:47:02.446Z,100930.22
2023-03-06T01:49:37.193Z,100933.22
2023-03-06T01:52:05.329Z,100926.63
2023-03-06T01:54:35.736Z,100910.50
2023-03-06T01:57:09.567Z,100909.88
2023-03-06T01:59:37.300Z,100918.25
2023-03-06T02:02:06.440Z,100910.19
2023-03-06T02:04:33.831Z,100906.25
2023-03-06T02:07:07.430Z,100903.78
2023-03-06T02:09:36.152Z,100894.13
2023-03-06T02:12:08.746Z,100885.94
2023-03-06T02:14:37.184Z,100889.41
2023-03-06T02:17:06.940Z,100897.00
2023-03-06T02:20:13.393Z,100889.91
2023-03-06T02:22:51.177Z,100898.13
2023-03-06T02:25:30.927Z,100897.69
2023-03-06T02:27:58.150Z,100896.25
2023-03-06T02:30:28.378Z,100894.66
2023-03-06T02:32:55.656Z,100886.50
2023-03-06T02:35:26.441Z,100884.91
2023-03-06T02:37:54.224Z,100880.78
2023-03-06T02:40:23.784Z,100881.25
2023-03-06T02:42:56.770Z,100870.06
2023-03-06T02:45:36.012Z,100876.53
2023-03-06T02:48:03.450Z,100870.88
2023-03-06T02:50:30.625Z,100862.47
2023-03-06T02:52:57.550Z,100862.16
2023-03-06T02:55:24.908Z,100860.72
2023-03-06T02:57:51.833Z,100852.97
2023-03-06T03:00:19.135Z,100843.38
2023-03-06T03:02:47.793Z,100843.53
2023-03-06T03:05:16.359Z,100843.66
2023-03-06T03:07:43.083Z,100837.97
2023-03-06T03:10:10.381Z,100830.53
2023-03-06T03:12:37.084Z,100828.00
2023-03-06T03:15:06.017Z,100824.03
2023-03-06T03:17:37.283Z,100820.88
2023-03-06T03:20:05.897Z,100816.31
2023-03-06T03:22:32.561Z,100817.88
2023-03-06T03:25:02.741Z,100812.19
2023-03-06T03:27:30.691Z,100808.84
2023-03-06T03:29:59.186Z,100806.63
2023-03-06T03:32:28.677Z,100802.84
2023-03-06T03:34:56.364Z,100804.06
2023-03-06T03:37:23.202Z,100804.84
2023-03-06T03:39:49.843Z,100799.63
2023-03-06T03:42:16.432Z,100794.56
2023-03-06T03:44:42.972Z,100788.88
2023-03-06T03:47:10.353Z,100795.19
2023-03-06T03:49:36.922Z,100791.06
2023-03-06T03:52:05.151Z,100787.25
2023-03-06T03:54:31.681Z,100783.13
2023-03-06T03:56:58.447Z,100788.16
2023-03-06T03:59:25.188Z,100784.56
2023-03-06T04:01:52.528Z,100791.38
2023-03-06T04:04:19.323Z,100781.88
2023-03-06T04:06:45.944Z,100779.53
2023-03-06T04:09:12.588Z,100788.06
2023-03-06T04:11:39.164Z,100777.88
2023-03-06T04:14:08.252Z,100773.13
2023-03-06T04:16:34.974Z,100771.53
2023-03-06T04:19:01.640Z,100771.22
2023-03-06T04:21:28.481Z,100770.53
2023-03-06T04:23:55.346Z,100761.38
2023-03-06T04:26:21.914Z,100758.69
2023-03-06T04:28:48.588Z,100764.53
2023-03-06T04:31:15.844Z,100766.09
2023-03-06T04:33:42.785Z,100753.34
2023-03-06T04:36:24.300Z,100753.44
2023-03-06T04:38:51.517Z,100747.63
2023-03-06T04:41:18.140Z,100749.06
2023-03-06T04:43:46.375Z,100751.44
2023-03-06T04:46:13.101Z,100745.28
2023-03-06T04:48:41.777Z,100745.91
2023-03-06T04:51:09.540Z,100744.81
2023-03-06T04:53:36.348Z,100742.91
2023-03-06T04:56:03.964Z,100740.53
2023-03-06T04:58:30.775Z,100739.75
2023-03-06T05:00:57.498Z,100736.75
2023-03-06T05:03:24.120Z,100738.00
2023-03-06T05:05:50.821Z,100735.44
2023-03-06T05:08:19.566Z,100732.41
2023-03-06T05:10:46.307Z,100734.47
2023-03-06T05:13:13.081Z,100733.78
2023-03-06T05:15:41.113Z,100736.94
2023-03-06T05:18:08.021Z,100731.56
2023-03-06T05:20:35.914Z,100729.00
2023-03-06T05:23:02.559Z,100735.94
2023-03-06T05:25:29.530Z,100736.41
2023-03-06T05:27:56.399Z,100731.47
2023-03-06T05:30:23.511Z,100731.78
2023-03-06T05:32:50.847Z,100731.34
2023-03-06T05:35:20.377Z,100727.88
2023-03-06T05:37:48.483Z,100719.50
2023-03-06T05:40:17.359Z,100714.91
2023-03-06T05:42:44.163Z,100710.31
2023-03-06T05:45:11.398Z,100711.53
2023-03-06T05:47:38.133Z,100715.03
2023-03-06T05:50:08.196Z,100706.53
2023-03-06T05:52:37.260Z,100708.75
2023-03-06T05:55:04.043Z,100714.13
2023-03-06T05:57:30.698Z,100714.13
2023-03-06T05:59:57.314Z,100706.38
2023-03-06T06:02:26.005Z,100707.84
2023-03-06T06:04:53.104Z,100707.53
2023-03-06T06:07:19.681Z,100713.22
2023-03-06T06:09:52.991Z,100720.50
2023-03-06T06:12:19.931Z,100723.50
2023-03-06T06:14:48.692Z,100725.41
2023-03-06T06:17:17.051Z,100733.47
2023-03-06T06:19:45.799Z,100724.72
2023-03-06T06:22:12.809Z,100732.47
2023-03-06T06:24:39.583Z,100731.03
2023-03-06T06:27:09.576Z,100742.22
2023-03-06T06:29:39.194Z,100738.31
2023-03-06T06:32:07.117Z,100737.94
2023-03-06T06:34:34.203Z,100743.47
2023-03-06T06:37:01.943Z,100732.38
2023-03-06T06:39:29.559Z,100731.72
2023-03-06T06:42:14.690Z,100738.31
2023-03-06T06:44:42.734Z,100733.84
2023-03-06T06:47:25.928Z,100734.63
2023-03-06T06:49:54.968Z,100734.78
2023-03-06T06:52:22.421Z,100738.69
2023-03-06T06:54:48.977Z,100739.59
2023-03-06T06:57:16.294Z,100738.81
2023-03-06T06:59:43.084Z,100739.28
2023-03-06T07:02:14.656Z,100744.97
2023-03-06T07:05:00.184Z,100738.13
2023-03-06T07:07:30.084Z,100739.38
2023-03-06T07:09:57.910Z,100746.78
2023-03-06T07:12:25.782Z,100748.03
2023-03-06T07:14:52.356Z,100752.25
2023-03-06T07:17:18.889Z,100747.66
2023-03-06T07:19:46.502Z,100747.34
2023-03-06T07:22:13.265Z,100752.84
2023-03-06T07:24:40.855Z,100752.84
2023-03-06T07:27:07.554Z,100753.84
2023-03-06T07:29:34.843Z,100764.75
2023-03-06T07:32:01.722Z,100762.50
2023-03-06T07:34:28.431Z,100766.06
2023-03-06T07:36:55.340Z,100758.13
2023-03-06T07:39:21.974Z,100759.03
2023-03-06T07:41:48.655Z,100766.09
2023-03-06T07:44:15.245Z,100755.91
2023-03-06T07:46:45.514Z,100750.94
2023-03-06T07:49:12.150Z,100753.78
2023-03-06T07:51:40.120Z,100756.59
2023-03-06T07:54:08.409Z,100757.56
2023-03-06T07:56:37.106Z,100752.41
2023-03-06T07:59:04.027Z,100759.91
2023-03-06T08:01:31.723Z,100761.25
2023-03-06T08:04:02.126Z,100753.19
2023-03-06T08:06:30.209Z,100762.25
2023-03-06T08:08:57.138Z,100758.13
2023-03-06T08:11:26.540Z,100759.13
2023-03-06T08:14:02.242Z,100760.00
2023-03-06T08:16:31.833Z,100761.59
2023-03-06T08:18:58.547Z,100763.38
2023-03-06T08:21:27.457Z,100758.25
2023-03-06T08:23:54.440Z,100766.41
2023-03-06T08:26:29.120Z,100768.00
2023-03-06T08:28:59.736Z,100759.56
2023-03-06T08:31:28.282Z,100763.06
2023-03-06T08:33:56.545Z,100769.66
2023-03-06T08:36:27.048Z,100763.84
2023-03-06T08:38:54.823Z,100767.75
2023-03-06T08:41:22.054Z,100757.88
2023-03-06T08:43:49.807Z,100764.16
2023-03-06T08:46:18.907Z,100760.00
2023-03-06T08:48:47.835Z,100757.84
2023-03-06T08:51:15.396Z,100760.41
2023-03-06T08:53:44.242Z,100758.06
2023-03-06T08:56:18.678Z,100762.19
2023-03-06T08:58:45.373Z,100765.00
2023-03-06T09:01:16.955Z,100757.34
2023-03-06T09:03:43.759Z,100761.25
2023-03-06T09:06:10.594Z,100757.88
2023-03-06T09:08:37.427Z,100751.47
2023-03-06T09:11:04.707Z,100755.94
2023-03-06T09:13:36.735Z,100760.63
2023-03-06T09:16:05.423Z,100764.53
2023-03-06T09:18:32.140Z,100758.81
2023-03-06T09:21:00.872Z,100762.06
2023-03-06T09:23:28.005Z,100762.72
2023-03-06T09:25:58.633Z,100756.22
2023-03-06T09:28:25.849Z,100756.66
2023-03-06T09:30:53.980Z,100760.75
2023-03-06T09:33:21.491Z,100754.84
2023-03-06T09:35:55.014Z,100755.41
2023-03-06T09:38:25.227Z,100750.97
2023-03-06T09:41:17.689Z,100752.66
2023-03-06T09:43:52.084Z,100755.41
2023-03-06T09:46:33.777Z,100754.31
2023-03-06T09:49:31.957Z,100753.75
2023-03-06T09:52:29.346Z,100749.59
2023-03-06T09:55:00.176Z,100756.28
2023-03-06T09:57:32.239Z,100758.13
2023-03-06T10:00:05.750Z,100757.00
2023-03-06T10:02:46.813Z,100757.94
2023-03-06T10:05:21.595Z,100756.81
2023-03-06T10:07:57.814Z,100753.16
2023-03-06T10:10:27.659Z,100760.66
2023-03-06T10:13:06.627Z,100758.81
2023-03-06T10:15:36.206Z,100765.53
2023-03-06T10:18:04.462Z,100770.78
2023-03-06T10:20:47.558Z,100762.50
2023-03-06T10:23:31.351Z,100759.09
2023-03-06T10:26:07.629Z,100762.22
2023-03-06T10:28:41.858Z,100750.22
2023-03-06T10:31:16.752Z,100748.53
2023-03-06T10:34:07.890Z,100759.66
2023-03-06T10:36:34.479Z,100747.44
2023-03-06T10:39:09.742Z,100754.84
2023-03-06T10:41:38.288Z,100748.47
2023-03-06T10:44:04.852Z,100748.16
2023-03-06T10:46:46.988Z,100745.22
2023-03-06T10:49:34.518Z,100743.28
2023-03-06T10:52:03.976Z,100746.19
2023-03-06T10:54:33.836Z,100743.78
2023-03-06T10:57:20.626Z,100732.47
2023-03-06T10:59:53.671Z,100740.88
2023-03-06T11:02:29.568Z,100734.03
2023-03-06T11:04:58.447Z,100740.78
2023-03-06T11:07:29.044Z,100737.66
2023-03-06T11:09:56.610Z,100727.00
2023-03-06T11:12:25.822Z,100733.53
2023-03-06T11:15:21.358Z,100730.06
2023-03-06T11:17:56.570Z,100727.66
2023-03-06T11:20:27.801Z,100721.66
2023-03-06T11:29:49.675Z,100715.69
2023-03-06T11:32:27.883Z,100704.94
2023-03-06T11:35:00.267Z,100702.44
2023-03-06T11:37:47.208Z,100705.69
2023-03-06T11:40:27.440Z,100703.78
2023-03-06T11:43:04.085Z,100701.06
2023-03-06T11:45:47.859Z,100691.34
2023-03-06T11:51:07.062Z,100696.72
2023-03-06T11:53:44.248Z,100688.97
2023-03-06T11:56:25.780Z,100686.47
2023-03-06T11:59:04.683Z,100685.44
2023-03-06T12:02:11.287Z,100691.97
2023-03-06T12:11:42.223Z,100677.41
2023-03-06T12:14:16.470Z,100674.38
2023-03-06T12:16:45.544Z,100675.31
2023-03-06T12:19:48.717Z,100674.16
2023-03-06T12:22:33.893Z,100664.97
2023-03-06T12:25:36.722Z,100667.00
2023-03-06T12:28:16.778Z,100663.09
2023-03-06T12:31:05.965Z,100658.56
2023-03-06T12:34:01.691Z,100659.78
2023-03-06T12:36:48.990Z,100659.41
2023-03-06T12:39:26.061Z,100649.34
2023-03-06T12:42:00.292Z,100656.28
2023-03-06T12:44:49.590Z,100652.88
2023-03-06T12:47:22.413Z,100649.44
2023-03-06T12:49:57.198Z,100643.19
2023-03-06T12:52:32.849Z,100647.88
2023-03-06T12:55:04.806Z,100634.22
2023-03-06T12:57:37.355Z,100644.34
2023-03-06T13:00:06.995Z,100634.38
2023-03-06T13:02:45.898Z,100630.94
2023-03-06T13:05:24.308Z,100619.06
2023-03-06T13:08:14.982Z,100615.22
2023-03-06T13:10:47.230Z,100611.78
2023-03-06T13:13:36.862Z,100617.25
2023-03-06T13:16:12.031Z,100610.69
2023-03-06T13:18:38.629Z,100594.06
2023-03-06T13:21:26.502Z,100597.94
2023-03-06T13:24:06.743Z,100595.66
2023-03-06T13:26:39.464Z,100590.97
2023-03-06T13:29:35.857Z,100587.69
2023-03-06T13:32:02.409Z,100582.03
2023-03-06T13:34:35.150Z,100575.56
2023-03-06T13:37:16.240Z,100567.53
2023-03-06T13:39:57.665Z,100564.47
2023-03-06T13:42:31.191Z,100563.69
2023-03-06T13:45:07.580Z,100558.28
2023-03-06T13:48:06.526Z,100545.47
2023-03-06T13:50:38.766Z,100552.34
2023-03-06T13:53:40.736Z,100551.97
2023-03-06T13:56:26.978Z,100557.81
2023-03-06T13:59:00.631Z,100546.94
2023-03-06T14:01:35.688Z,100547.31
2023-03-06T14:04:36.213Z,100547.25
2023-03-06T14:07:29.764Z,100535.63
2023-03-06T14:09:59.630Z,100539.50
2023-03-06T14:12:33.329Z,100532.16
2023-03-06T14:15:09.023Z,100534.53
2023-03-06T14:17:39.328Z,100523.28
2023-03-06T14:20:16.683Z,100521.72
2023-03-06T14:22:43.616Z,100518.22
2023-03-06T14:25:34.583Z,100515.44
2023-03-06T14:28:15.770Z,100511.53
2023-03-06T14:30:50.331Z,100511.06
2023-03-06T14:33:29.355Z,100509.00
2023-03-06T14:35:59.626Z,100510.41
2023-03-06T14:38:28.809Z,100498.75
2023-03-06T14:40:57.532Z,100502.59
2023-03-06T14:43:27.809Z,100495.59
2023-03-06T14:46:01.683Z,100492.53
2023-03-06T14:48:46.183Z,100496.44
2023-03-06T14:51:17.239Z,100484.00
2023-03-06T14:53:45.725Z,100493.16
2023-03-06T14:56:17.862Z,100490.03
2023-03-06T14:58:51.727Z,100495.09
2023-03-06T15:01:27.242Z,100483.53
2023-03-06T15:03:58.973Z,100490.38
2023-03-06T15:06:31.224Z,100491.00
2023-03-06T15:09:15.497Z,100481.78
2023-03-06T15:11:54.003Z,100480.41
2023-03-06T15:14:28.351Z,100462.34
2023-03-06T15:16:55.090Z,100463.59
2023-03-06T15:19:22.739Z,100459.81
2023-03-06T15:21:51.967Z,100461.69
2023-03-06T15:24:33.424Z,100463.91
2023-03-06T15:27:03.807Z,100457.28
2023-03-06T15:29:31.116Z,100463.06
2023-03-06T15:32:31.258Z,100452.25
2023-03-06T15:35:30.087Z,100454.25
2023-03-06T15:37:57.881Z,100450.63
2023-03-06T15:40:27.425Z,100441.34
2023-03-06T15:42:55.425Z,100446.81
2023-03-06T15:45:25.082Z,100440.63
2023-03-06T15:47:54.560Z,100433.72
2023-03-06T15:50:26.917Z,100437.13
2023-03-06T15:52:55.995Z,100434.81
2023-03-06T15:55:26.043Z,100426.63
2023-03-06T15:57:59.575Z,100420.50
2023-03-06T16:00:28.836Z,100421.72
2023-03-06T16:02:57.135Z,100406.97
2023-03-06T16:05:25.374Z,100419.63
2023-03-06T16:07:53.564Z,100417.91
2023-03-06T16:10:22.719Z,100428.19
2023-03-06T16:12:54.467Z,100409.19
2023-03-06T16:15:30.015Z,100417.94
2023-03-06T16:17:57.871Z,100414.41
2023-03-06T16:20:35.796Z,100419.25
2023-03-06T16:23:12.078Z,100411.69
2023-03-06T16:31:41.940Z,100412.94
2023-03-06T16:34:15.635Z,100406.13
2023-03-06T16:36:45.840Z,100413.13
2023-03-06T16:42:12.740Z,100391.88
2023-03-06T16:44:41.584Z,100396.56
2023-03-06T16:50:01.558Z,100381.81
2023-03-06T16:52:28.840Z,100382.59
2023-03-06T16:54:56.456Z,100382.22
2023-03-06T16:57:31.842Z,100383.38
2023-03-06T17:00:02.094Z,100375.16
2023-03-06T17:02:28.999Z,100384.34
2023-03-06T17:05:00.644Z,100378.53
2023-03-06T17:07:29.842Z,100371.16
2023-03-06T17:09:58.663Z,100366.97
2023-03-06T17:12:33.071Z,100360.47
2023-03-06T17:14:59.836Z,100355.34
2023-03-06T17:17:27.154Z,100357.25
2023-03-06T17:19:56.323Z,100347.25
2023-03-06T17:22:24.402Z,100346.56
2023-03-06T17:24:52.288Z,100336.91
2023-03-06T17:30:05.465Z,100345.63
2023-03-06T17:32:38.569Z,100329.03
2023-03-06T17:35:06.901Z,100333.16
2023-03-06T17:37:34.935Z,100332.09
2023-03-06T17:40:02.979Z,100328.25
2023-03-06T17:42:30.156Z,100328.59
2023-03-06T17:45:00.266Z,100322.75
2023-03-06T17:47:34.046Z,100326.63
2023-03-06T17:50:01.598Z,100316.19
2023-03-06T17:52:31.612Z,100317.69
2023-03-06T17:55:05.699Z,100308.75
2023-03-06T17:57:33.957Z,100307.97
2023-03-06T18:00:00.777Z,100302.94
2023-03-06T18:02:27.534Z,100307.22
2023-03-06T18:05:06.180Z,100302.88
2023-03-06T18:07:38.382Z,100300.97
2023-03-06T18:10:07.210Z,100305.16
2023-03-06T18:12:34.583Z,100301.69
2023-03-06T18:15:02.248Z,100309.00
2023-03-06T18:17:39.281Z,100308.19
2023-03-06T18:20:10.429Z,100297.28
2023-03-06T18:22:39.593Z,100299.97
2023-03-06T18:25:15.773Z,100291.53
2023-03-06T18:27:43.509Z,100296.16
2023-03-06T18:30:13.647Z,100287.56
2023-03-06T18:32:40.971Z,100284.00
2023-03-06T18:35:09.620Z,100289.06
2023-03-06T18:37:36.160Z,100276.38
2023-03-06T18:40:02.898Z,100276.69
2023-03-06T18:42:30.438Z,100266.31
2023-03-06T18:44:57.210Z,100269.00
2023-03-06T18:47:24.971Z,100263.63
2023-03-06T18:49:51.545Z,100255.53
2023-03-06T18:52:18.238Z,100253.19
2023-03-06T18:54:46.207Z,100251.47
2023-03-06T18:57:12.788Z,100243.75
2023-03-06T18:59:39.397Z,100243.41
2023-03-06T19:02:05.985Z,100238.81
2023-03-06T19:04:32.617Z,100239.94
2023-03-06T19:06:59.260Z,100233.44
2023-03-06T19:09:25.908Z,100230.56
2023-03-06T19:11:54.812Z,100222.16
2023-03-06T19:14:21.641Z,100215.13
2023-03-06T19:16:48.365Z,100217.41
2023-03-06T19:19:15.221Z,100220.44
2023-03-06T19:21:41.724Z,100211.25
2023-03-06T19:24:14.297Z,100205.09
2023-03-06T19:26:41.961Z,100201.16
2023-03-06T19:29:08.710Z,100207.69
2023-03-06T19:31:35.548Z,100197.69
2023-03-06T19:34:02.127Z,100193.47
2023-03-06T19:36:33.616Z,100191.88
2023-03-06T19:39:03.121Z,100188.06
2023-03-06T19:41:29.796Z,100180.00
2023-03-06T19:44:03.396Z,100178.50
2023-03-06T19:46:32.013Z,100169.22
2023-03-06T19:49:01.054Z,100169.88
2023-03-06T19:51:28.649Z,100164.91
2023-03-06T19:53:56.332Z,100156.41
2023-03-06T19:56:26.089Z,100148.69
2023-03-06T19:58:53.202Z,100141.31
2023-03-06T20:15:43.325Z,100114.47
2023-03-06T20:18:15.640Z,100099.50
2023-03-06T20:21:03.021Z,100107.59
2023-03-06T20:23:32.511Z,100102.63
2023-03-06T20:26:06.987Z,100093.78
2023-03-06T20:28:39.137Z,100084.22
2023-03-06T20:31:13.488Z,100080.31
2023-03-06T20:33:40.490Z,100066.16
2023-03-06T20:39:04.359Z,100072.97
2023-03-06T20:41:45.092Z,100060.72
2023-03-06T20:44:19.551Z,100053.19
2023-03-06T20:49:37.682Z,100045.53
2023-03-06T20:52:04.950Z,100037.81
2023-03-06T20:54:35.719Z,100027.53
2023-03-06T20:57:07.643Z,100031.75
2023-03-06T20:59:42.801Z,100029.88
2023-03-06T21:04:56.199Z,100012.16
2023-03-06T21:07:28.392Z,100014.53
2023-03-06T21:09:57.262Z,100010.72
2023-03-06T21:12:27.354Z,100016.81
2023-03-06T21:14:54.522Z,100007.59
2023-03-06T21:17:28.461Z,100014.53
2023-03-06T21:19:56.253Z,100004.59
2023-03-06T21:22:25.506Z,99999.63
2023-03-06T21:24:55.645Z,99985.06
2023-03-06T21:35:39.251Z,99989.28
2023-03-06T21:38:11.264Z,99980.13
2023-03-06T21:40:40.362Z,99973.63
2023-03-06T21:43:34.210Z,99974.75
2023-03-06T21:46:00.500Z,99991.63
2023-03-06T22:05:33.100Z,99983.25
2023-03-06T22:10:55.651Z,99976.34
2023-03-06T22:13:26.341Z,99974.81
2023-03-06T22:15:59.694Z,99964.44
2023-03-06T22:18:30.064Z,99961.38
2023-03-06T22:21:09.967Z,99962.94
2023-03-06T22:23:48.692Z,99966.75
2023-03-06T22:37:25.286Z,99955.63
2023-03-06T22:39:59.064Z,99950.25
2023-03-06T22:50:52.369Z,99946.31
2023-03-06T22:53:23.551Z,99942.78
2023-03-06T22:55:52.236Z,99936.28
2023-03-06T23:04:18.960Z,99937.47
2023-03-06T23:12:37.982Z,99934.81
2023-03-06T23:15:31.807Z,99936.38
2023-03-06T23:18:23.819Z,99950.56
2023-03-06T23:20:52.619Z,99939.72
2023-03-06T23:26:31.354Z,99931.72
2023-03-06T23:29:04.952Z,99937.09
2023-03-06T23:31:55.321Z,99934.41
2023-03-06T23:37:52.442Z,99925.19
2023-03-06T23:40:22.353Z,99929.72
2023-03-06T23:45:36.956Z,99934.75
2023-03-06T23:48:46.685Z,99920.53
2023-03-06T23:51:19.084Z,99926.34
2023-03-06T23:56:30.360Z,99918.28
